sensor_id;sensor_type;location;lat;lon;timestamp;P1;durP1;ratioP1;P2;durP2;ratioP2
37267;SDS011;23154;52.542;13.362;2022-08-18T00:02:02;21.40;;;9.30;;
37267;SDS011;23154;52.542;13.362;2022-08-18T00:04:47;22.50;;;10.70;;
37267;SDS011;23154;52.542;13.362;2022-08-18T00:07:14;21.15;;;10.43;;
37267;SDS011;23154;52.542;13.362;2022-08-18T00:09:59;21.50;;;10.05;;
37267;SDS011;23154;52.542;13.362;2022-08-18T00:12:30;20.08;;;10.80;;
37267;SDS011;23154;52.542;13.362;2022-08-18T00:14:59;22.92;;;10.55;;
37267;SDS011;23154;52.542;13.362;2022-08-18T00:17:29;21.77;;;9.52;;
37267;SDS011;23154;52.542;13.362;2022-08-18T00:19:56;19.15;;;10.25;;
37267;SDS011;23154;52.542;13.362;2022-08-18T00:22:22;19.90;;;9.98;;
37267;SDS011;23154;52.542;13.362;2022-08-18T00:24:53;22.48;;;10.43;;
37267;SDS011;23154;52.542;13.362;2022-08-18T00:27:20;19.90;;;10.68;;
37267;SDS011;23154;52.542;13.362;2022-08-18T00:29:48;22.05;;;10.02;;
37267;SDS011;23154;52.542;13.362;2022-08-18T00:32:15;19.55;;;10.15;;
37267;SDS011;23154;52.542;13.362;2022-08-18T00:34:42;20.98;;;10.27;;
37267;SDS011;23154;52.542;13.362;2022-08-18T00:37:08;20.80;;;10.25;;
37267;SDS011;23154;52.542;13.362;2022-08-18T00:39:34;19.83;;;10.35;;
37267;SDS011;23154;52.542;13.362;2022-08-18T00:42:10;25.30;;;10.15;;
37267;SDS011;23154;52.542;13.362;2022-08-18T00:44:50;23.48;;;10.68;;
37267;SDS011;23154;52.542;13.362;2022-08-18T00:47:16;19.95;;;10.10;;
37267;SDS011;23154;52.542;13.362;2022-08-18T00:49:41;21.45;;;10.75;;
37267;SDS011;23154;52.542;13.362;2022-08-18T00:52:11;21.48;;;10.02;;
37267;SDS011;23154;52.542;13.362;2022-08-18T00:54:39;21.25;;;10.57;;
37267;SDS011;23154;52.542;13.362;2022-08-18T00:57:07;23.10;;;9.98;;
37267;SDS011;23154;52.542;13.362;2022-08-18T00:59:47;20.45;;;10.05;;
37267;SDS011;23154;52.542;13.362;2022-08-18T01:05:06;20.73;;;10.20;;
37267;SDS011;23154;52.542;13.362;2022-08-18T01:07:44;19.25;;;9.98;;
37267;SDS011;23154;52.542;13.362;2022-08-18T01:10:12;19.92;;;9.90;;
37267;SDS011;23154;52.542;13.362;2022-08-18T01:12:54;24.30;;;10.65;;
37267;SDS011;23154;52.542;13.362;2022-08-18T01:15:22;20.02;;;9.48;;
37267;SDS011;23154;52.542;13.362;2022-08-18T01:17:49;21.08;;;10.45;;
37267;SDS011;23154;52.542;13.362;2022-08-18T01:20:43;19.83;;;9.95;;
37267;SDS011;23154;52.542;13.362;2022-08-18T01:23:38;20.85;;;9.90;;
37267;SDS011;23154;52.542;13.362;2022-08-18T01:26:04;20.27;;;9.25;;
37267;SDS011;23154;52.542;13.362;2022-08-18T01:28:34;22.58;;;9.73;;
37267;SDS011;23154;52.542;13.362;2022-08-18T01:31:02;19.25;;;9.63;;
37267;SDS011;23154;52.542;13.362;2022-08-18T01:33:33;20.27;;;9.60;;
37267;SDS011;23154;52.542;13.362;2022-08-18T01:36:17;21.42;;;9.88;;
37267;SDS011;23154;52.542;13.362;2022-08-18T01:38:46;22.08;;;9.52;;
37267;SDS011;23154;52.542;13.362;2022-08-18T01:41:14;19.08;;;9.15;;
37267;SDS011;23154;52.542;13.362;2022-08-18T01:43:40;21.70;;;9.73;;
37267;SDS011;23154;52.542;13.362;2022-08-18T01:46:06;19.73;;;9.35;;
37267;SDS011;23154;52.542;13.362;2022-08-18T01:48:33;23.70;;;9.40;;
37267;SDS011;23154;52.542;13.362;2022-08-18T01:51:00;20.17;;;9.85;;
37267;SDS011;23154;52.542;13.362;2022-08-18T01:53:31;19.02;;;8.98;;
37267;SDS011;23154;52.542;13.362;2022-08-18T01:55:56;22.02;;;9.90;;
37267;SDS011;23154;52.542;13.362;2022-08-18T01:58:22;23.25;;;8.95;;
37267;SDS011;23154;52.542;13.362;2022-08-18T02:00:51;19.33;;;9.60;;
37267;SDS011;23154;52.542;13.362;2022-08-18T02:03:20;18.90;;;8.95;;
37267;SDS011;23154;52.542;13.362;2022-08-18T02:05:50;21.40;;;9.18;;
37267;SDS011;23154;52.542;13.362;2022-08-18T02:08:19;21.92;;;10.23;;
37267;SDS011;23154;52.542;13.362;2022-08-18T02:10:46;19.67;;;9.32;;
37267;SDS011;23154;52.542;13.362;2022-08-18T02:13:12;18.75;;;9.35;;
37267;SDS011;23154;52.542;13.362;2022-08-18T02:15:37;20.05;;;9.65;;
37267;SDS011;23154;52.542;13.362;2022-08-18T02:18:03;19.25;;;9.07;;
37267;SDS011;23154;52.542;13.362;2022-08-18T02:20:29;21.65;;;8.70;;
37267;SDS011;23154;52.542;13.362;2022-08-18T02:22:55;20.70;;;9.73;;
37267;SDS011;23154;52.542;13.362;2022-08-18T02:25:22;20.27;;;9.18;;
37267;SDS011;23154;52.542;13.362;2022-08-18T02:27:48;19.55;;;8.90;;
37267;SDS011;23154;52.542;13.362;2022-08-18T02:30:15;18.77;;;9.32;;
37267;SDS011;23154;52.542;13.362;2022-08-18T02:32:42;19.15;;;9.32;;
37267;SDS011;23154;52.542;13.362;2022-08-18T02:35:09;19.25;;;9.45;;
37267;SDS011;23154;52.542;13.362;2022-08-18T02:37:35;19.35;;;9.18;;
37267;SDS011;23154;52.542;13.362;2022-08-18T02:40:01;20.20;;;9.77;;
37267;SDS011;23154;52.542;13.362;2022-08-18T02:42:27;21.15;;;9.65;;
37267;SDS011;23154;52.542;13.362;2022-08-18T02:44:53;23.83;;;9.80;;
37267;SDS011;23154;52.542;13.362;2022-08-18T02:47:19;20.67;;;10.30;;
37267;SDS011;23154;52.542;13.362;2022-08-18T02:49:45;19.90;;;9.60;;
37267;SDS011;23154;52.542;13.362;2022-08-18T02:52:11;19.80;;;9.55;;
37267;SDS011;23154;52.542;13.362;2022-08-18T02:54:37;25.85;;;9.82;;
37267;SDS011;23154;52.542;13.362;2022-08-18T02:57:09;18.30;;;9.38;;
37267;SDS011;23154;52.542;13.362;2022-08-18T02:59:36;19.52;;;9.30;;
37267;SDS011;23154;52.542;13.362;2022-08-18T03:02:04;23.67;;;9.18;;
37267;SDS011;23154;52.542;13.362;2022-08-18T03:04:31;19.38;;;10.05;;
37267;SDS011;23154;52.542;13.362;2022-08-18T03:06:59;22.38;;;9.82;;
37267;SDS011;23154;52.542;13.362;2022-08-18T03:09:26;18.80;;;9.27;;
37267;SDS011;23154;52.542;13.362;2022-08-18T03:11:53;22.75;;;9.50;;
37267;SDS011;23154;52.542;13.362;2022-08-18T03:14:19;20.15;;;9.48;;
37267;SDS011;23154;52.542;13.362;2022-08-18T03:16:45;22.95;;;10.07;;
37267;SDS011;23154;52.542;13.362;2022-08-18T03:19:13;18.30;;;9.82;;
37267;SDS011;23154;52.542;13.362;2022-08-18T03:21:40;21.73;;;9.80;;
37267;SDS011;23154;52.542;13.362;2022-08-18T03:24:07;23.52;;;10.07;;
37267;SDS011;23154;52.542;13.362;2022-08-18T03:26:33;22.45;;;8.57;;
37267;SDS011;23154;52.542;13.362;2022-08-18T03:28:59;21.45;;;9.43;;
37267;SDS011;23154;52.542;13.362;2022-08-18T03:31:26;18.05;;;9.38;;
37267;SDS011;23154;52.542;13.362;2022-08-18T03:33:55;21.63;;;9.65;;
37267;SDS011;23154;52.542;13.362;2022-08-18T03:36:23;20.15;;;9.43;;
37267;SDS011;23154;52.542;13.362;2022-08-18T03:38:51;23.27;;;10.10;;
37267;SDS011;23154;52.542;13.362;2022-08-18T03:41:18;20.17;;;10.50;;
37267;SDS011;23154;52.542;13.362;2022-08-18T03:43:49;21.63;;;10.07;;
37267;SDS011;23154;52.542;13.362;2022-08-18T03:46:16;19.73;;;9.88;;
37267;SDS011;23154;52.542;13.362;2022-08-18T03:48:43;22.13;;;10.70;;
37267;SDS011;23154;52.542;13.362;2022-08-18T03:51:22;22.98;;;10.23;;
37267;SDS011;23154;52.542;13.362;2022-08-18T03:53:49;23.25;;;9.73;;
37267;SDS011;23154;52.542;13.362;2022-08-18T03:56:20;19.95;;;10.02;;
37267;SDS011;23154;52.542;13.362;2022-08-18T03:58:51;22.23;;;10.15;;
37267;SDS011;23154;52.542;13.362;2022-08-18T04:01:22;21.37;;;10.43;;
37267;SDS011;23154;52.542;13.362;2022-08-18T04:03:52;22.58;;;10.13;;
37267;SDS011;23154;52.542;13.362;2022-08-18T04:06:28;22.60;;;10.40;;
37267;SDS011;23154;52.542;13.362;2022-08-18T04:08:59;18.33;;;9.50;;
37267;SDS011;23154;52.542;13.362;2022-08-18T04:11:29;20.13;;;10.25;;
37267;SDS011;23154;52.542;13.362;2022-08-18T04:13:55;21.50;;;10.60;;
37267;SDS011;23154;52.542;13.362;2022-08-18T04:16:27;29.27;;;11.57;;
37267;SDS011;23154;52.542;13.362;2022-08-18T04:18:56;22.30;;;10.02;;
37267;SDS011;23154;52.542;13.362;2022-08-18T04:21:27;21.35;;;9.95;;
37267;SDS011;23154;52.542;13.362;2022-08-18T04:23:55;24.20;;;10.43;;
37267;SDS011;23154;52.542;13.362;2022-08-18T04:26:23;32.15;;;11.40;;
37267;SDS011;23154;52.542;13.362;2022-08-18T04:28:49;25.17;;;11.43;;
37267;SDS011;23154;52.542;13.362;2022-08-18T04:31:15;31.63;;;10.90;;
37267;SDS011;23154;52.542;13.362;2022-08-18T04:33:42;22.05;;;10.68;;
37267;SDS011;23154;52.542;13.362;2022-08-18T04:36:09;25.83;;;10.57;;
37267;SDS011;23154;52.542;13.362;2022-08-18T04:38:37;22.23;;;10.30;;
37267;SDS011;23154;52.542;13.362;2022-08-18T04:41:05;23.08;;;11.00;;
37267;SDS011;23154;52.542;13.362;2022-08-18T04:43:31;24.65;;;11.27;;
37267;SDS011;23154;52.542;13.362;2022-08-18T04:45:57;23.85;;;10.85;;
37267;SDS011;23154;52.542;13.362;2022-08-18T04:48:29;23.25;;;10.27;;
37267;SDS011;23154;52.542;13.362;2022-08-18T04:51:02;23.42;;;10.65;;
37267;SDS011;23154;52.542;13.362;2022-08-18T04:53:29;26.42;;;11.13;;
37267;SDS011;23154;52.542;13.362;2022-08-18T04:56:14;28.15;;;10.40;;
37267;SDS011;23154;52.542;13.362;2022-08-18T04:58:53;24.83;;;11.45;;
37267;SDS011;23154;52.542;13.362;2022-08-18T05:01:22;28.05;;;11.63;;
37267;SDS011;23154;52.542;13.362;2022-08-18T05:06:17;23.13;;;10.10;;
37267;SDS011;23154;52.542;13.362;2022-08-18T05:08:44;23.08;;;10.23;;
37267;SDS011;23154;52.542;13.362;2022-08-18T05:11:12;21.38;;;10.30;;
37267;SDS011;23154;52.542;13.362;2022-08-18T05:13:38;22.15;;;11.25;;
37267;SDS011;23154;52.542;13.362;2022-08-18T05:16:04;25.42;;;10.93;;
37267;SDS011;23154;52.542;13.362;2022-08-18T05:18:31;22.13;;;11.07;;
37267;SDS011;23154;52.542;13.362;2022-08-18T05:20:57;24.80;;;11.52;;
37267;SDS011;23154;52.542;13.362;2022-08-18T05:23:24;22.75;;;11.27;;
37267;SDS011;23154;52.542;13.362;2022-08-18T05:25:55;24.10;;;11.68;;
37267;SDS011;23154;52.542;13.362;2022-08-18T05:28:24;23.17;;;10.85;;
37267;SDS011;23154;52.542;13.362;2022-08-18T05:30:50;23.63;;;11.02;;
37267;SDS011;23154;52.542;13.362;2022-08-18T05:33:15;18.92;;;10.50;;
37267;SDS011;23154;52.542;13.362;2022-08-18T05:35:43;24.33;;;10.82;;
37267;SDS011;23154;52.542;13.362;2022-08-18T05:41:10;22.58;;;10.32;;
37267;SDS011;23154;52.542;13.362;2022-08-18T05:43:57;31.17;;;11.88;;
37267;SDS011;23154;52.542;13.362;2022-08-18T05:46:39;22.73;;;10.98;;
37267;SDS011;23154;52.542;13.362;2022-08-18T05:49:12;21.65;;;10.10;;
37267;SDS011;23154;52.542;13.362;2022-08-18T05:51:44;29.55;;;11.13;;
37267;SDS011;23154;52.542;13.362;2022-08-18T05:54:12;25.23;;;11.02;;
37267;SDS011;23154;52.542;13.362;2022-08-18T05:57:02;30.13;;;11.60;;
37267;SDS011;23154;52.542;13.362;2022-08-18T05:59:32;21.25;;;11.10;;
37267;SDS011;23154;52.542;13.362;2022-08-18T06:02:03;25.10;;;10.75;;
37267;SDS011;23154;52.542;13.362;2022-08-18T06:07:49;23.88;;;10.88;;
37267;SDS011;23154;52.542;13.362;2022-08-18T06:10:20;22.77;;;10.77;;
37267;SDS011;23154;52.542;13.362;2022-08-18T06:12:49;23.70;;;10.73;;
37267;SDS011;23154;52.542;13.362;2022-08-18T06:15:19;27.33;;;11.05;;
37267;SDS011;23154;52.542;13.362;2022-08-18T06:26:08;25.70;;;10.27;;
37267;SDS011;23154;52.542;13.362;2022-08-18T06:28:50;27.15;;;12.10;;
37267;SDS011;23154;52.542;13.362;2022-08-18T06:31:26;48.28;;;26.40;;
37267;SDS011;23154;52.542;13.362;2022-08-18T06:39:21;44.30;;;25.38;;
37267;SDS011;23154;52.542;13.362;2022-08-18T06:41:54;34.72;;;18.08;;
37267;SDS011;23154;52.542;13.362;2022-08-18T06:46:51;46.25;;;16.40;;
37267;SDS011;23154;52.542;13.362;2022-08-18T06:55:03;23.45;;;11.45;;
37267;SDS011;23154;52.542;13.362;2022-08-18T06:57:40;33.67;;;11.52;;
37267;SDS011;23154;52.542;13.362;2022-08-18T07:05:58;29.27;;;11.18;;
37267;SDS011;23154;52.542;13.362;2022-08-18T07:08:30;35.30;;;12.90;;
37267;SDS011;23154;52.542;13.362;2022-08-18T07:10:59;28.67;;;10.80;;
37267;SDS011;23154;52.542;13.362;2022-08-18T07:13:50;30.52;;;13.68;;
37267;SDS011;23154;52.542;13.362;2022-08-18T07:18:53;29.10;;;11.48;;
37267;SDS011;23154;52.542;13.362;2022-08-18T07:21:23;25.30;;;11.05;;
37267;SDS011;23154;52.542;13.362;2022-08-18T07:23:56;36.95;;;14.27;;
37267;SDS011;23154;52.542;13.362;2022-08-18T07:26:25;39.03;;;19.90;;
37267;SDS011;23154;52.542;13.362;2022-08-18T07:28:51;31.98;;;13.10;;
37267;SDS011;23154;52.542;13.362;2022-08-18T07:31:35;25.40;;;11.60;;
37267;SDS011;23154;52.542;13.362;2022-08-18T07:34:10;29.05;;;11.88;;
37267;SDS011;23154;52.542;13.362;2022-08-18T07:36:42;29.92;;;13.30;;
37267;SDS011;23154;52.542;13.362;2022-08-18T07:39:14;26.88;;;11.90;;
37267;SDS011;23154;52.542;13.362;2022-08-18T07:41:54;25.92;;;11.68;;
37267;SDS011;23154;52.542;13.362;2022-08-18T07:44:41;24.52;;;11.02;;
37267;SDS011;23154;52.542;13.362;2022-08-18T07:47:17;32.85;;;11.80;;
37267;SDS011;23154;52.542;13.362;2022-08-18T07:49:47;23.67;;;10.95;;
37267;SDS011;23154;52.542;13.362;2022-08-18T08:00:15;26.38;;;11.65;;
37267;SDS011;23154;52.542;13.362;2022-08-18T08:11:24;38.92;;;12.82;;
37267;SDS011;23154;52.542;13.362;2022-08-18T08:14:30;28.15;;;11.45;;
37267;SDS011;23154;52.542;13.362;2022-08-18T08:19:58;26.73;;;11.45;;
37267;SDS011;23154;52.542;13.362;2022-08-18T08:31:01;28.73;;;12.52;;
37267;SDS011;23154;52.542;13.362;2022-08-18T08:34:01;27.40;;;12.27;;
37267;SDS011;23154;52.542;13.362;2022-08-18T08:36:48;28.00;;;12.27;;
37267;SDS011;23154;52.542;13.362;2022-08-18T08:42:06;27.75;;;14.25;;
37267;SDS011;23154;52.542;13.362;2022-08-18T08:44:41;28.27;;;12.80;;
37267;SDS011;23154;52.542;13.362;2022-08-18T08:49:57;22.13;;;11.82;;
37267;SDS011;23154;52.542;13.362;2022-08-18T08:55:56;25.23;;;12.40;;
37267;SDS011;23154;52.542;13.362;2022-08-18T09:01:01;24.13;;;12.10;;
37267;SDS011;23154;52.542;13.362;2022-08-18T09:22:57;23.13;;;12.32;;
37267;SDS011;23154;52.542;13.362;2022-08-18T09:25:33;28.95;;;12.85;;
37267;SDS011;23154;52.542;13.362;2022-08-18T09:35:43;34.30;;;13.18;;
37267;SDS011;23154;52.542;13.362;2022-08-18T09:38:24;25.40;;;12.95;;
37267;SDS011;23154;52.542;13.362;2022-08-18T09:41:16;26.33;;;12.02;;
37267;SDS011;23154;52.542;13.362;2022-08-18T09:51:49;23.20;;;11.50;;
37267;SDS011;23154;52.542;13.362;2022-08-18T09:54:20;28.70;;;12.70;;
37267;SDS011;23154;52.542;13.362;2022-08-18T10:02:06;28.85;;;11.07;;
37267;SDS011;23154;52.542;13.362;2022-08-18T10:04:40;22.17;;;10.50;;
37267;SDS011;23154;52.542;13.362;2022-08-18T10:07:19;22.90;;;10.18;;
37267;SDS011;23154;52.542;13.362;2022-08-18T10:15:34;25.05;;;11.65;;
37267;SDS011;23154;52.542;13.362;2022-08-18T10:18:19;26.90;;;10.77;;
37267;SDS011;23154;52.542;13.362;2022-08-18T10:21:11;23.17;;;10.93;;
37267;SDS011;23154;52.542;13.362;2022-08-18T10:42:47;27.20;;;10.80;;
37267;SDS011;23154;52.542;13.362;2022-08-18T10:45:42;25.60;;;10.57;;
37267;SDS011;23154;52.542;13.362;2022-08-18T10:48:24;25.00;;;10.38;;
37267;SDS011;23154;52.542;13.362;2022-08-18T10:53:57;21.02;;;10.10;;
37267;SDS011;23154;52.542;13.362;2022-08-18T10:56:39;22.60;;;10.25;;
37267;SDS011;23154;52.542;13.362;2022-08-18T11:07:12;25.90;;;10.40;;
37267;SDS011;23154;52.542;13.362;2022-08-18T11:09:43;23.00;;;9.40;;
37267;SDS011;23154;52.542;13.362;2022-08-18T11:12:11;22.13;;;10.25;;
37267;SDS011;23154;52.542;13.362;2022-08-18T11:14:45;23.48;;;9.95;;
37267;SDS011;23154;52.542;13.362;2022-08-18T11:19:46;25.50;;;9.30;;
37267;SDS011;23154;52.542;13.362;2022-08-18T11:22:27;29.95;;;9.82;;
37267;SDS011;23154;52.542;13.362;2022-08-18T11:24:55;17.83;;;8.80;;
37267;SDS011;23154;52.542;13.362;2022-08-18T11:27:21;26.92;;;9.32;;
37267;SDS011;23154;52.542;13.362;2022-08-18T11:29:52;21.15;;;9.25;;
37267;SDS011;23154;52.542;13.362;2022-08-18T11:34:52;20.75;;;8.98;;
37267;SDS011;23154;52.542;13.362;2022-08-18T11:37:28;21.48;;;9.60;;
37267;SDS011;23154;52.542;13.362;2022-08-18T11:39:59;22.70;;;9.00;;
37267;SDS011;23154;52.542;13.362;2022-08-18T11:42:30;17.80;;;7.10;;
37267;SDS011;23154;52.542;13.362;2022-08-18T11:45:17;22.42;;;7.30;;
37267;SDS011;23154;52.542;13.362;2022-08-18T12:04:36;16.48;;;7.35;;
37267;SDS011;23154;52.542;13.362;2022-08-18T12:07:10;21.60;;;7.93;;
37267;SDS011;23154;52.542;13.362;2022-08-18T12:09:39;24.08;;;7.75;;
37267;SDS011;23154;52.542;13.362;2022-08-18T12:12:15;18.42;;;7.32;;
37267;SDS011;23154;52.542;13.362;2022-08-18T12:14:56;21.83;;;8.52;;
37267;SDS011;23154;52.542;13.362;2022-08-18T12:17:25;18.98;;;7.63;;
37267;SDS011;23154;52.542;13.362;2022-08-18T12:19:53;23.60;;;8.93;;
37267;SDS011;23154;52.542;13.362;2022-08-18T12:22:23;22.30;;;8.65;;
37267;SDS011;23154;52.542;13.362;2022-08-18T12:24:50;18.80;;;8.13;;
37267;SDS011;23154;52.542;13.362;2022-08-18T12:27:18;20.65;;;8.50;;
37267;SDS011;23154;52.542;13.362;2022-08-18T12:29:48;20.95;;;9.00;;
37267;SDS011;23154;52.542;13.362;2022-08-18T12:32:14;20.50;;;8.55;;
37267;SDS011;23154;52.542;13.362;2022-08-18T12:34:40;21.08;;;8.93;;
37267;SDS011;23154;52.542;13.362;2022-08-18T12:37:06;22.15;;;9.00;;
37267;SDS011;23154;52.542;13.362;2022-08-18T12:39:34;20.50;;;8.10;;
37267;SDS011;23154;52.542;13.362;2022-08-18T12:42:00;23.90;;;8.50;;
37267;SDS011;23154;52.542;13.362;2022-08-18T12:44:26;23.38;;;8.73;;
37267;SDS011;23154;52.542;13.362;2022-08-18T12:46:52;20.33;;;8.20;;
37267;SDS011;23154;52.542;13.362;2022-08-18T12:49:21;18.30;;;7.90;;
37267;SDS011;23154;52.542;13.362;2022-08-18T12:51:48;20.80;;;8.40;;
37267;SDS011;23154;52.542;13.362;2022-08-18T12:54:15;18.58;;;8.05;;
37267;SDS011;23154;52.542;13.362;2022-08-18T12:56:41;17.05;;;7.82;;
37267;SDS011;23154;52.542;13.362;2022-08-18T12:59:10;17.20;;;8.10;;
37267;SDS011;23154;52.542;13.362;2022-08-18T13:01:36;19.70;;;7.95;;
37267;SDS011;23154;52.542;13.362;2022-08-18T13:04:03;21.45;;;8.70;;
37267;SDS011;23154;52.542;13.362;2022-08-18T13:06:30;21.25;;;8.23;;
37267;SDS011;23154;52.542;13.362;2022-08-18T13:08:58;18.77;;;8.27;;
37267;SDS011;23154;52.542;13.362;2022-08-18T13:11:24;24.02;;;7.78;;
37267;SDS011;23154;52.542;13.362;2022-08-18T13:13:50;18.05;;;7.50;;
37267;SDS011;23154;52.542;13.362;2022-08-18T13:16:17;23.02;;;7.93;;
37267;SDS011;23154;52.542;13.362;2022-08-18T13:18:43;17.15;;;7.22;;
37267;SDS011;23154;52.542;13.362;2022-08-18T13:21:10;18.73;;;7.47;;
37267;SDS011;23154;52.542;13.362;2022-08-18T13:23:37;16.17;;;7.40;;
37267;SDS011;23154;52.542;13.362;2022-08-18T13:26:04;18.27;;;7.63;;
37267;SDS011;23154;52.542;13.362;2022-08-18T13:28:33;20.58;;;8.10;;
37267;SDS011;23154;52.542;13.362;2022-08-18T13:31:00;19.77;;;7.50;;
37267;SDS011;23154;52.542;13.362;2022-08-18T13:33:26;19.85;;;7.47;;
37267;SDS011;23154;52.542;13.362;2022-08-18T13:35:53;18.83;;;7.78;;
37267;SDS011;23154;52.542;13.362;2022-08-18T13:38:18;16.45;;;7.63;;
37267;SDS011;23154;52.542;13.362;2022-08-18T13:40:47;18.80;;;7.00;;
37267;SDS011;23154;52.542;13.362;2022-08-18T13:43:15;18.63;;;7.10;;
37267;SDS011;23154;52.542;13.362;2022-08-18T13:45:41;14.90;;;6.78;;
37267;SDS011;23154;52.542;13.362;2022-08-18T13:48:08;18.20;;;7.18;;
37267;SDS011;23154;52.542;13.362;2022-08-18T13:50:34;17.40;;;7.43;;
37267;SDS011;23154;52.542;13.362;2022-08-18T13:53:03;17.83;;;7.20;;
37267;SDS011;23154;52.542;13.362;2022-08-18T13:55:28;18.23;;;7.15;;
37267;SDS011;23154;52.542;13.362;2022-08-18T13:57:54;18.42;;;6.80;;
37267;SDS011;23154;52.542;13.362;2022-08-18T14:00:20;21.65;;;7.38;;
37267;SDS011;23154;52.542;13.362;2022-08-18T14:02:48;17.13;;;7.03;;
37267;SDS011;23154;52.542;13.362;2022-08-18T14:05:16;16.67;;;6.77;;
37267;SDS011;23154;52.542;13.362;2022-08-18T14:07:42;17.90;;;6.60;;
37267;SDS011;23154;52.542;13.362;2022-08-18T14:10:07;17.05;;;6.47;;
37267;SDS011;23154;52.542;13.362;2022-08-18T14:12:34;18.55;;;6.72;;
37267;SDS011;23154;52.542;13.362;2022-08-18T14:15:01;17.92;;;6.97;;
37267;SDS011;23154;52.542;13.362;2022-08-18T14:17:31;18.00;;;6.65;;
37267;SDS011;23154;52.542;13.362;2022-08-18T14:19:58;16.08;;;6.50;;
37267;SDS011;23154;52.542;13.362;2022-08-18T14:22:42;17.17;;;6.47;;
37267;SDS011;23154;52.542;13.362;2022-08-18T14:25:26;15.48;;;6.00;;
37267;SDS011;23154;52.542;13.362;2022-08-18T14:28:11;14.65;;;6.15;;
37267;SDS011;23154;52.542;13.362;2022-08-18T14:30:37;14.30;;;6.28;;
37267;SDS011;23154;52.542;13.362;2022-08-18T14:33:05;19.90;;;7.32;;
37267;SDS011;23154;52.542;13.362;2022-08-18T14:35:32;18.55;;;7.95;;
37267;SDS011;23154;52.542;13.362;2022-08-18T14:37:58;17.40;;;6.47;;
37267;SDS011;23154;52.542;13.362;2022-08-18T14:40:25;17.35;;;6.70;;
37267;SDS011;23154;52.542;13.362;2022-08-18T14:42:52;16.95;;;6.05;;
37267;SDS011;23154;52.542;13.362;2022-08-18T14:45:18;19.13;;;6.70;;
37267;SDS011;23154;52.542;13.362;2022-08-18T14:47:43;21.95;;;7.55;;
37267;SDS011;23154;52.542;13.362;2022-08-18T14:50:09;17.67;;;7.70;;
37267;SDS011;23154;52.542;13.362;2022-08-18T14:52:37;17.60;;;7.82;;
37267;SDS011;23154;52.542;13.362;2022-08-18T14:55:04;18.92;;;6.65;;
37267;SDS011;23154;52.542;13.362;2022-08-18T14:57:31;25.77;;;7.40;;
37267;SDS011;23154;52.542;13.362;2022-08-18T14:59:57;18.75;;;6.28;;
37267;SDS011;23154;52.542;13.362;2022-08-18T15:02:22;17.35;;;6.38;;
37267;SDS011;23154;52.542;13.362;2022-08-18T15:04:48;17.92;;;6.03;;
37267;SDS011;23154;52.542;13.362;2022-08-18T15:07:13;19.27;;;6.25;;
37267;SDS011;23154;52.542;13.362;2022-08-18T15:09:39;17.55;;;6.22;;
37267;SDS011;23154;52.542;13.362;2022-08-18T15:12:05;20.60;;;6.50;;
37267;SDS011;23154;52.542;13.362;2022-08-18T15:14:32;17.63;;;6.72;;
37267;SDS011;23154;52.542;13.362;2022-08-18T15:17:02;21.05;;;6.82;;
37267;SDS011;23154;52.542;13.362;2022-08-18T15:19:31;23.63;;;6.65;;
37267;SDS011;23154;52.542;13.362;2022-08-18T15:21:56;19.50;;;7.20;;
37267;SDS011;23154;52.542;13.362;2022-08-18T15:24:41;19.48;;;7.35;;
37267;SDS011;23154;52.542;13.362;2022-08-18T15:27:36;18.48;;;7.22;;
37267;SDS011;23154;52.542;13.362;2022-08-18T15:30:06;17.20;;;7.43;;
37267;SDS011;23154;52.542;13.362;2022-08-18T15:35:00;18.40;;;7.95;;
37267;SDS011;23154;52.542;13.362;2022-08-18T15:37:26;18.20;;;7.45;;
37267;SDS011;23154;52.542;13.362;2022-08-18T15:40:06;17.73;;;7.60;;
37267;SDS011;23154;52.542;13.362;2022-08-18T15:42:35;15.77;;;6.15;;
37267;SDS011;23154;52.542;13.362;2022-08-18T15:45:15;16.58;;;6.72;;
37267;SDS011;23154;52.542;13.362;2022-08-18T15:47:43;16.65;;;6.85;;
37267;SDS011;23154;52.542;13.362;2022-08-18T15:50:10;16.02;;;6.32;;
37267;SDS011;23154;52.542;13.362;2022-08-18T15:52:44;17.58;;;6.82;;
37267;SDS011;23154;52.542;13.362;2022-08-18T15:55:10;17.08;;;6.18;;
37267;SDS011;23154;52.542;13.362;2022-08-18T15:57:36;18.20;;;6.60;;
37267;SDS011;23154;52.542;13.362;2022-08-18T16:00:02;17.67;;;6.07;;
37267;SDS011;23154;52.542;13.362;2022-08-18T16:02:29;16.15;;;6.60;;
37267;SDS011;23154;52.542;13.362;2022-08-18T16:04:55;16.50;;;6.22;;
37267;SDS011;23154;52.542;13.362;2022-08-18T16:07:20;17.75;;;6.43;;
37267;SDS011;23154;52.542;13.362;2022-08-18T16:09:46;16.75;;;6.65;;
37267;SDS011;23154;52.542;13.362;2022-08-18T16:12:11;19.10;;;8.20;;
37267;SDS011;23154;52.542;13.362;2022-08-18T16:14:38;17.83;;;7.30;;
37267;SDS011;23154;52.542;13.362;2022-08-18T16:17:04;17.35;;;6.13;;
37267;SDS011;23154;52.542;13.362;2022-08-18T16:19:30;15.55;;;5.93;;
37267;SDS011;23154;52.542;13.362;2022-08-18T16:21:55;16.55;;;6.35;;
37267;SDS011;23154;52.542;13.362;2022-08-18T16:24:21;14.52;;;5.78;;
37267;SDS011;23154;52.542;13.362;2022-08-18T16:26:50;22.63;;;7.27;;
37267;SDS011;23154;52.542;13.362;2022-08-18T16:29:16;14.55;;;6.40;;
37267;SDS011;23154;52.542;13.362;2022-08-18T16:31:42;17.25;;;6.68;;
37267;SDS011;23154;52.542;13.362;2022-08-18T16:34:07;19.98;;;7.18;;
37267;SDS011;23154;52.542;13.362;2022-08-18T16:36:33;18.08;;;7.20;;
37267;SDS011;23154;52.542;13.362;2022-08-18T16:39:00;19.50;;;7.10;;
37267;SDS011;23154;52.542;13.362;2022-08-18T16:41:25;23.52;;;7.40;;
37267;SDS011;23154;52.542;13.362;2022-08-18T16:43:51;18.17;;;7.32;;
37267;SDS011;23154;52.542;13.362;2022-08-18T16:46:22;16.05;;;6.80;;
37267;SDS011;23154;52.542;13.362;2022-08-18T16:48:50;18.38;;;7.40;;
37267;SDS011;23154;52.542;13.362;2022-08-18T16:51:18;22.60;;;7.72;;
37267;SDS011;23154;52.542;13.362;2022-08-18T16:53:46;17.27;;;7.07;;
37267;SDS011;23154;52.542;13.362;2022-08-18T16:56:17;21.10;;;8.32;;
37267;SDS011;23154;52.542;13.362;2022-08-18T16:58:44;23.38;;;8.18;;
37267;SDS011;23154;52.542;13.362;2022-08-18T17:01:29;18.70;;;7.22;;
37267;SDS011;23154;52.542;13.362;2022-08-18T17:04:16;18.27;;;7.88;;
37267;SDS011;23154;52.542;13.362;2022-08-18T17:06:44;18.05;;;7.50;;
37267;SDS011;23154;52.542;13.362;2022-08-18T17:09:10;21.17;;;8.10;;
37267;SDS011;23154;52.542;13.362;2022-08-18T17:11:36;22.25;;;8.30;;
37267;SDS011;23154;52.542;13.362;2022-08-18T17:14:04;23.33;;;9.50;;
37267;SDS011;23154;52.542;13.362;2022-08-18T17:16:32;21.90;;;9.48;;
37267;SDS011;23154;52.542;13.362;2022-08-18T17:18:59;21.70;;;9.85;;
37267;SDS011;23154;52.542;13.362;2022-08-18T17:21:26;21.08;;;9.75;;
37267;SDS011;23154;52.542;13.362;2022-08-18T17:23:57;21.20;;;8.50;;
37267;SDS011;23154;52.542;13.362;2022-08-18T17:28:54;20.52;;;8.82;;
37267;SDS011;23154;52.542;13.362;2022-08-18T17:31:43;19.88;;;8.95;;
37267;SDS011;23154;52.542;13.362;2022-08-18T17:34:18;19.95;;;8.90;;
37267;SDS011;23154;52.542;13.362;2022-08-18T17:39:15;20.33;;;8.98;;
37267;SDS011;23154;52.542;13.362;2022-08-18T17:41:47;20.10;;;8.23;;